createdAt,value
2023-01-27T00:00:56.794Z,88.20
2023-01-27T00:05:01.815Z,88.46
2023-01-27T00:09:04.582Z,88.47
2023-01-27T00:13:24.763Z,88.20
2023-01-27T00:17:28.266Z,87.89
2023-01-27T00:21:50.161Z,88.27
2023-01-27T00:25:58.555Z,87.66
2023-01-27T00:30:01.636Z,87.79
2023-01-27T00:34:10.007Z,88.01
2023-01-27T00:38:14.352Z,88.51
2023-01-27T00:42:17.648Z,88.39
2023-01-27T00:46:22.240Z,87.14
2023-01-27T00:50:25.068Z,86.63
2023-01-27T00:54:29.595Z,87.30
2023-01-27T00:58:32.774Z,86.63
2023-01-27T01:02:35.469Z,87.05
2023-01-27T01:06:38.790Z,86.60
2023-01-27T01:10:42.625Z,86.60
2023-01-27T01:14:45.956Z,86.25
2023-01-27T01:18:49.369Z,86.74
2023-01-27T01:22:52.750Z,87.94
2023-01-27T01:26:57.206Z,87.60
2023-01-27T01:31:06.395Z,87.88
2023-01-27T01:35:10.292Z,88.91
2023-01-27T01:39:13.829Z,89.09
2023-01-27T01:43:22.021Z,88.96
2023-01-27T01:47:25.190Z,87.92
2023-01-27T01:51:31.116Z,87.75
2023-01-27T01:55:35.859Z,88.30
2023-01-27T01:59:44.860Z,87.90
2023-01-27T02:03:52.752Z,87.87
2023-01-27T02:07:59.101Z,88.34
2023-01-27T02:12:02.651Z,88.21
2023-01-27T02:16:07.780Z,88.89
2023-01-27T02:20:20.438Z,87.33
2023-01-27T02:24:27.513Z,88.28
2023-01-27T02:28:33.510Z,87.84
2023-01-27T02:32:37.626Z,87.49
2023-01-27T02:36:48.080Z,88.68
2023-01-27T02:40:55.706Z,89.53
2023-01-27T02:45:00.225Z,90.26
2023-01-27T02:49:03.435Z,90.86
2023-01-27T02:53:07.539Z,91.27
2023-01-27T02:57:10.550Z,91.20
2023-01-27T03:01:15.034Z,91.86
2023-01-27T03:05:18.347Z,91.78
2023-01-27T03:09:21.624Z,91.45
2023-01-27T03:13:25.766Z,91.57
2023-01-27T03:17:47.219Z,90.64
2023-01-27T03:21:51.450Z,90.96
2023-01-27T03:25:54.738Z,91.69
2023-01-27T03:29:58.235Z,91.57
2023-01-27T03:34:02.795Z,92.48
2023-01-27T03:38:24.245Z,92.37
2023-01-27T03:42:45.000Z,93.87
2023-01-27T03:46:48.378Z,94.25
2023-01-27T03:50:54.560Z,93.90
2023-01-27T03:54:57.875Z,93.59
2023-01-27T03:59:01.290Z,94.03
2023-01-27T04:03:21.917Z,94.49
2023-01-27T04:07:25.862Z,95.05
2023-01-27T04:11:46.119Z,95.58
2023-01-27T04:15:49.048Z,95.24
2023-01-27T04:19:52.168Z,95.82
2023-01-27T04:23:57.428Z,96.44
2023-01-27T04:28:00.322Z,96.75
2023-01-27T04:32:04.659Z,97.09
2023-01-27T04:36:08.190Z,96.94
2023-01-27T04:40:13.775Z,97.71
2023-01-27T04:44:17.476Z,97.55
2023-01-27T04:48:20.185Z,97.13
2023-01-27T04:52:24.869Z,97.25
2023-01-27T04:56:31.539Z,97.03
2023-01-27T05:00:34.758Z,97.25
2023-01-27T05:04:39.196Z,96.91
2023-01-27T05:08:44.349Z,97.61
2023-01-27T05:12:49.212Z,97.33
2023-01-27T05:16:52.382Z,97.50
2023-01-27T05:20:55.503Z,97.92
2023-01-27T05:24:58.740Z,97.94
2023-01-27T05:29:03.645Z,97.43
2023-01-27T05:33:08.487Z,98.50
2023-01-27T05:37:12.481Z,98.54
2023-01-27T05:41:17.547Z,98.79
2023-01-27T05:45:22.288Z,99.54
2023-01-27T05:49:25.263Z,99.68
2023-01-27T05:53:28.838Z,99.03
2023-01-27T05:57:31.519Z,97.91
2023-01-27T06:01:37.804Z,97.48
2023-01-27T06:05:40.907Z,96.60
2023-01-27T06:09:43.739Z,95.95
2023-01-27T06:13:46.943Z,95.69
2023-01-27T06:17:52.832Z,95.77
2023-01-27T06:21:55.809Z,95.30
2023-01-27T06:26:03.825Z,96.06
2023-01-27T06:30:07.657Z,96.87
2023-01-27T06:34:12.119Z,96.93
2023-01-27T06:38:15.849Z,97.16
2023-01-27T06:42:18.825Z,97.50
2023-01-27T06:46:22.086Z,98.22
2023-01-27T06:50:28.604Z,97.95
2023-01-27T06:54:31.610Z,97.34
2023-01-27T06:58:35.038Z,97.15
2023-01-27T07:02:38.204Z,96.64
2023-01-27T07:06:42.501Z,96.31
2023-01-27T07:10:45.605Z,95.41
2023-01-27T07:14:48.610Z,94.62
2023-01-27T07:18:51.590Z,94.25
2023-01-27T07:22:57.960Z,92.97
2023-01-27T07:27:00.737Z,91.45
2023-01-27T07:31:04.551Z,89.83
2023-01-27T07:35:08.742Z,89.46
2023-01-27T07:39:13.948Z,89.25
2023-01-27T07:43:16.937Z,86.42
2023-01-27T07:47:20.063Z,82.61
2023-01-27T07:51:23.435Z,82.36
2023-01-27T07:55:28.378Z,80.65
2023-01-27T07:59:31.598Z,75.81
2023-01-27T08:03:34.701Z,74.16
2023-01-27T08:07:37.474Z,73.21
2023-01-27T08:11:42.346Z,68.76
2023-01-27T08:15:46.153Z,69.83
2023-01-27T08:19:50.838Z,67.57
2023-01-27T08:23:58.095Z,65.85
2023-01-27T08:28:02.883Z,65.45
2023-01-27T08:32:06.485Z,64.21
2023-01-27T08:36:09.800Z,64.01
2023-01-27T08:40:14.401Z,62.88
2023-01-27T08:44:19.126Z,63.14
2023-01-27T08:48:24.331Z,61.92
2023-01-27T08:52:31.100Z,62.04
2023-01-27T08:56:34.375Z,61.88
2023-01-27T09:00:38.894Z,61.52
2023-01-27T09:04:44.656Z,57.54
2023-01-27T09:09:11.314Z,58.78
2023-01-27T09:13:14.766Z,58.74
2023-01-27T09:17:20.074Z,56.19
2023-01-27T09:21:23.287Z,56.03
2023-01-27T09:25:26.871Z,53.72
2023-01-27T09:29:31.362Z,55.10
2023-01-27T09:33:35.934Z,54.91
2023-01-27T09:37:45.450Z,52.89
2023-01-27T09:42:07.179Z,51.64
2023-01-27T09:46:45.962Z,49.98
2023-01-27T09:50:59.005Z,48.30
2023-01-27T09:55:10.907Z,47.51
2023-01-27T09:59:37.192Z,50.41
2023-01-27T10:04:03.320Z,53.28
2023-01-27T10:08:42.198Z,56.32
2023-01-27T10:13:00.563Z,57.57
2023-01-27T10:17:19.373Z,59.43
2023-01-27T10:21:33.082Z,61.06
2023-01-27T10:25:52.384Z,63.71
2023-01-27T10:29:59.582Z,63.65
2023-01-27T10:34:08.604Z,62.77
2023-01-27T10:38:19.789Z,62.41
2023-01-27T10:42:33.368Z,62.52
2023-01-27T10:46:49.306Z,61.86
2023-01-27T10:50:55.416Z,60.49
2023-01-27T10:55:03.543Z,59.21
2023-01-27T10:59:16.538Z,58.71
2023-01-27T11:03:27.305Z,58.20
2023-01-27T11:07:33.433Z,58.56
2023-01-27T11:11:45.917Z,58.93
2023-01-27T11:15:52.745Z,56.54
2023-01-27T11:20:02.809Z,55.85
2023-01-27T11:24:17.559Z,58.38
2023-01-27T11:28:29.979Z,60.14
2023-01-27T11:32:50.815Z,62.92
2023-01-27T11:36:56.484Z,63.71
2023-01-27T11:41:02.248Z,65.71
2023-01-27T11:45:05.918Z,67.33
2023-01-27T11:49:17.900Z,68.22
2023-01-27T11:53:27.856Z,70.04
2023-01-27T11:57:31.273Z,70.25
2023-01-27T12:01:47.516Z,71.80
2023-01-27T12:05:57.635Z,72.95
2023-01-27T12:10:01.180Z,72.53
2023-01-27T12:14:05.095Z,73.32
2023-01-27T12:18:15.194Z,72.36
2023-01-27T12:22:28.052Z,74.39
2023-01-27T12:26:38.280Z,73.76
2023-01-27T12:30:41.650Z,73.10
2023-01-27T12:34:48.338Z,72.52
2023-01-27T12:38:54.401Z,71.52
2023-01-27T12:43:13.575Z,72.00
2023-01-27T12:47:25.684Z,71.06
2023-01-27T12:51:41.245Z,71.62
2023-01-27T12:55:57.638Z,72.06
2023-01-27T13:00:01.287Z,72.73
2023-01-27T13:04:09.507Z,71.73
2023-01-27T13:08:18.199Z,73.34
2023-01-27T13:12:25.015Z,73.33
2023-01-27T13:16:32.370Z,72.67
2023-01-27T13:20:43.560Z,72.85
2023-01-27T13:24:51.934Z,72.91
2023-01-27T13:28:59.791Z,73.27
2023-01-27T13:33:12.814Z,73.61
2023-01-27T13:37:20.373Z,73.86
2023-01-27T13:41:34.429Z,74.52
2023-01-27T13:45:42.584Z,75.30
2023-01-27T13:49:48.297Z,76.33
2023-01-27T13:53:58.806Z,75.23
2023-01-27T13:58:09.498Z,74.92
2023-01-27T14:02:46.229Z,75.44
2023-01-27T14:07:04.828Z,76.10
2023-01-27T14:11:19.869Z,77.47
2023-01-27T14:15:30.220Z,77.59
2023-01-27T14:19:46.487Z,79.06
2023-01-27T14:24:01.683Z,79.32
2023-01-27T14:28:13.933Z,81.23
2023-01-27T14:32:26.459Z,81.58
2023-01-27T14:36:36.078Z,82.28
2023-01-27T14:40:47.047Z,83.09
2023-01-27T14:45:03.789Z,84.38
2023-01-27T14:49:17.059Z,83.70
2023-01-27T14:53:38.036Z,84.70
2023-01-27T14:57:50.459Z,85.08
2023-01-27T15:02:00.648Z,86.64
2023-01-27T15:06:10.181Z,86.84
2023-01-27T15:10:23.424Z,87.31
2023-01-27T15:14:48.020Z,88.10
2023-01-27T15:19:12.080Z,88.64
2023-01-27T15:23:28.562Z,89.21
2023-01-27T15:27:34.672Z,89.38
2023-01-27T15:31:38.021Z,90.04
2023-01-27T15:35:41.810Z,90.21
2023-01-27T15:40:06.228Z,90.66
2023-01-27T15:44:19.666Z,90.90
2023-01-27T15:48:26.436Z,91.25
2023-01-27T15:52:33.352Z,91.14
2023-01-27T15:56:52.570Z,91.31
2023-01-27T16:00:59.775Z,91.57
2023-01-27T16:05:09.543Z,91.51
2023-01-27T16:09:26.230Z,91.79
2023-01-27T16:13:31.494Z,91.69
2023-01-27T16:17:36.209Z,91.68
2023-01-27T16:21:47.768Z,92.33
2023-01-27T16:25:55.787Z,91.76
2023-01-27T16:30:00.955Z,91.72
2023-01-27T16:34:16.487Z,91.18
2023-01-27T16:38:25.837Z,90.58
2023-01-27T16:42:32.871Z,91.37
2023-01-27T16:46:40.721Z,91.48
2023-01-27T16:50:46.402Z,91.28
2023-01-27T16:54:54.559Z,91.05
2023-01-27T16:59:02.157Z,91.29
2023-01-27T17:03:19.027Z,90.91
2023-01-27T17:07:24.342Z,90.97
2023-01-27T17:11:30.929Z,90.59
2023-01-27T17:15:38.107Z,90.04
2023-01-27T17:19:41.257Z,89.74
2023-01-27T17:23:46.091Z,90.37
2023-01-27T17:27:49.685Z,90.17
2023-01-27T17:31:53.210Z,90.30
2023-01-27T17:35:59.225Z,90.05
2023-01-27T17:40:04.633Z,89.84
2023-01-27T17:44:14.799Z,89.87
2023-01-27T17:48:17.571Z,89.70
2023-01-27T17:52:24.318Z,89.28
2023-01-27T17:56:33.463Z,89.19
2023-01-27T18:00:40.412Z,89.70
2023-01-27T18:04:43.908Z,89.67
2023-01-27T18:08:55.481Z,89.29
2023-01-27T18:13:13.982Z,89.31
2023-01-27T18:17:23.746Z,89.92
2023-01-27T18:21:28.636Z,89.87
2023-01-27T18:25:35.183Z,90.25
2023-01-27T18:29:41.029Z,89.68
2023-01-27T18:33:44.744Z,89.87
2023-01-27T18:37:55.421Z,89.14
2023-01-27T18:41:59.940Z,90.81
2023-01-27T18:46:11.714Z,89.94
2023-01-27T18:50:19.651Z,90.54
2023-01-27T18:54:22.826Z,89.89
2023-01-27T18:58:26.080Z,89.96
2023-01-27T19:02:33.486Z,90.46
2023-01-27T19:06:36.235Z,90.83
2023-01-27T19:10:42.904Z,91.45
2023-01-27T19:14:48.180Z,91.82
2023-01-27T19:18:52.844Z,91.99
2023-01-27T19:22:57.693Z,92.73
2023-01-27T19:27:02.282Z,92.88
2023-01-27T19:31:09.054Z,92.83
2023-01-27T19:35:17.514Z,92.45
2023-01-27T19:39:21.702Z,92.10
2023-01-27T19:43:30.389Z,92.97
2023-01-27T19:47:33.172Z,93.79
2023-01-27T19:51:38.197Z,94.10
2023-01-27T19:55:42.073Z,95.02
2023-01-27T19:59:46.197Z,95.42
2023-01-27T20:03:49.681Z,96.55
2023-01-27T20:07:55.639Z,95.81
2023-01-27T20:12:03.634Z,96.53
2023-01-27T20:16:07.481Z,96.61
2023-01-27T20:20:11.421Z,96.98
2023-01-27T20:24:17.907Z,97.16
2023-01-27T20:28:21.068Z,97.11
2023-01-27T20:32:25.978Z,97.38
2023-01-27T20:36:29.030Z,96.74
2023-01-27T20:40:33.672Z,97.10
2023-01-27T20:44:36.776Z,97.19
2023-01-27T20:48:41.518Z,98.63
2023-01-27T20:52:45.119Z,98.47
2023-01-27T20:56:49.812Z,99.01
2023-01-27T21:00:52.896Z,99.66
2023-01-27T21:04:59.135Z,100.00
2023-01-27T21:09:02.447Z,100.00
2023-01-27T21:13:07.053Z,100.00
2023-01-27T21:17:10.259Z,100.00
2023-01-27T21:21:23.909Z,100.00
2023-01-27T21:25:27.185Z,100.00
2023-01-27T21:29:42.603Z,100.00
2023-01-27T21:33:48.296Z,100.00
2023-01-27T21:37:51.506Z,100.00
2023-01-27T21:42:13.740Z,100.00
2023-01-27T21:46:21.841Z,100.00
2023-01-27T21:50:24.991Z,100.00
2023-01-27T21:54:30.066Z,100.00
2023-01-27T21:58:33.356Z,100.00
2023-01-27T22:02:37.433Z,100.00
2023-01-27T22:06:40.403Z,100.00
2023-01-27T22:10:46.289Z,100.00
2023-01-27T22:14:49.568Z,100.00
2023-01-27T22:18:54.531Z,100.00
2023-01-27T22:22:57.847Z,100.00
2023-01-27T22:27:01.551Z,100.00
2023-01-27T22:31:04.959Z,100.00
2023-01-27T22:35:10.551Z,100.00
2023-01-27T22:39:13.804Z,100.00
2023-01-27T22:43:17.146Z,100.00
2023-01-27T22:47:25.650Z,100.00
2023-01-27T22:51:30.354Z,100.00
2023-01-27T22:55:33.294Z,100.00
2023-01-27T22:59:36.673Z,100.00
2023-01-27T23:03:39.833Z,100.00
2023-01-27T23:07:47.893Z,100.00
2023-01-27T23:11:50.910Z,100.00
2023-01-27T23:15:54.361Z,100.00
2023-01-27T23:19:57.508Z,100.00
2023-01-27T23:24:01.910Z,100.00
2023-01-27T23:28:05.133Z,100.00
2023-01-27T23:32:08.721Z,100.00
2023-01-27T23:36:12.581Z,100.00
2023-01-27T23:40:17.600Z,100.00
2023-01-27T23:44:20.723Z,100.00
2023-01-27T23:48:24.919Z,100.00
2023-01-27T23:52:28.029Z,100.00
2023-01-27T23:56:32.712Z,100.00
